Portada
METAR-TAF:

METAR-TAF

Aeroports :

Huron County Memorial Airport

Bad Axe, Michigan, Estats Units d'Amèrica

latitud: 43-46-51N, longitud: 082-59-08W, altitud: 233 m

Observació

L'informe es va fer fa 7 minuts, a les 02:16 UTC
Vent 7 kt del Sud
Temperatura 24°C
Humitat 74%
Pressió 1015 hPa
Visibilitat: 16.1 km
Cel clar

METAR: KBAX 280216Z AUTO 19007KT 10SM CLR 24/19 A2998 RMK AO2 T02350185

Hora: 22:23 (02:23 UTC)


TAF: manca

Observacions i pronòstics meteorològics de més de 4000 aeroports (METAR i TAF).

Les estacions disponibles són els punts grocs i vermells al mapa.

Posi el ratolí al punt desitjat per veure el nom de l'estació.

Feu clic per veure les observacions i els pronòstics meteorològics.

Per canviar el mapa: feu clic els botons verds amb una creu de color negre per apropar; al botó verd amb un guió per allunyar la imatge; o en les fletxes verdes per a mapes adjacents.


METAR-TAF: